createdAt,value
2022-09-12T00:05:04.350Z,12.20
2022-09-12T00:11:10.803Z,12.15
2022-09-12T00:17:12.746Z,12.12
2022-09-12T00:23:15.020Z,12.09
2022-09-12T00:29:20.876Z,11.95
2022-09-12T00:35:22.754Z,11.97
2022-09-12T00:41:28.770Z,11.89
2022-09-12T00:47:32.431Z,11.81
2022-09-12T00:53:34.444Z,11.57
2022-09-12T01:00:05.945Z,11.53
2022-09-12T01:06:40.007Z,11.43
2022-09-12T01:12:43.594Z,11.18
2022-09-12T01:19:26.200Z,11.10
2022-09-12T01:26:00.439Z,10.98
2022-09-12T01:32:16.009Z,10.91
2022-09-12T01:38:53.148Z,10.80
2022-09-12T01:45:53.204Z,10.70
2022-09-12T01:52:01.333Z,10.67
2022-09-12T01:58:19.293Z,10.56
2022-09-12T02:04:33.515Z,10.47
2022-09-12T02:11:03.486Z,10.52
2022-09-12T02:17:16.571Z,10.47
2022-09-12T02:23:27.917Z,10.27
2022-09-12T02:29:30.243Z,10.30
2022-09-12T02:35:49.153Z,10.33
2022-09-12T02:41:53.039Z,10.18
2022-09-12T02:48:34.457Z,10.15
2022-09-12T02:54:38.172Z,10.11
2022-09-12T03:01:05.316Z,10.12
2022-09-12T03:07:16.120Z,10.11
2022-09-12T03:13:50.567Z,10.07
2022-09-12T03:26:17.387Z,10.09
2022-09-12T03:32:19.291Z,10.11
2022-09-12T03:38:21.191Z,10.08
2022-09-12T03:44:24.687Z,9.94
2022-09-12T03:50:26.814Z,9.96
2022-09-12T03:56:29.281Z,9.84
2022-09-12T04:02:31.211Z,9.86
2022-09-12T04:08:33.778Z,9.93
2022-09-12T04:14:35.687Z,9.91
2022-09-12T04:20:37.580Z,9.87
2022-09-12T04:26:39.481Z,9.86
2022-09-12T04:32:41.438Z,9.87
2022-09-12T04:38:47.875Z,9.88
2022-09-12T04:44:49.999Z,10.13
2022-09-12T04:50:51.927Z,10.04
2022-09-12T04:56:55.163Z,10.07
2022-09-12T05:02:57.071Z,9.98
2022-09-12T05:09:01.845Z,10.14
2022-09-12T05:15:04.721Z,10.19
2022-09-12T05:21:09.398Z,10.13
2022-09-12T05:27:11.382Z,10.27
2022-09-12T05:33:25.215Z,10.24
2022-09-12T05:39:27.171Z,10.38
2022-09-12T05:45:30.186Z,10.56
2022-09-12T05:51:38.451Z,11.01
2022-09-12T05:57:43.496Z,11.25
2022-09-12T06:03:49.889Z,11.46
2022-09-12T06:16:18.255Z,12.09
2022-09-12T06:22:20.171Z,12.31
2022-09-12T06:28:22.116Z,12.39
2022-09-12T06:34:24.282Z,12.47
2022-09-12T06:40:27.516Z,13.10
2022-09-12T06:46:31.200Z,14.90
2022-09-12T06:52:33.113Z,18.96
2022-09-12T06:58:35.826Z,21.81
2022-09-12T07:04:37.775Z,23.69
2022-09-12T07:10:39.679Z,24.75
2022-09-12T07:22:51.117Z,21.60
2022-09-12T07:28:54.757Z,19.70
2022-09-12T07:34:56.670Z,18.83
2022-09-12T07:40:58.930Z,18.34
2022-09-12T07:47:01.100Z,17.88
2022-09-12T07:53:04.627Z,18.10
2022-09-12T07:59:07.562Z,18.42
2022-09-12T08:05:09.756Z,18.53
2022-09-12T08:11:15.490Z,18.50
2022-09-12T08:17:17.412Z,19.02
2022-09-12T08:29:29.080Z,19.59
2022-09-12T08:43:01.317Z,20.61
2022-09-12T08:49:05.050Z,21.67
2022-09-12T08:55:39.395Z,22.60
2022-09-12T09:01:45.493Z,24.08
2022-09-12T09:08:35.514Z,24.95
2022-09-12T09:14:52.230Z,25.82
2022-09-12T09:21:17.993Z,27.36
2022-09-12T09:27:42.580Z,28.56
2022-09-12T09:33:47.865Z,29.94
2022-09-12T09:40:17.008Z,30.80
2022-09-12T09:46:19.135Z,32.31
2022-09-12T09:52:28.435Z,32.13
2022-09-12T09:58:36.793Z,32.08
2022-09-12T10:04:41.878Z,31.22
2022-09-12T10:10:59.820Z,30.46
2022-09-12T10:17:22.528Z,30.40
2022-09-12T10:23:37.763Z,29.85
2022-09-12T10:29:55.719Z,29.92
2022-09-12T10:35:58.410Z,29.69
2022-09-12T10:42:01.638Z,29.99
2022-09-12T10:48:29.512Z,30.12
2022-09-12T10:54:31.434Z,30.11
2022-09-12T11:00:42.887Z,30.09
2022-09-12T11:07:12.843Z,29.75
2022-09-12T11:13:47.012Z,30.31
2022-09-12T11:20:31.924Z,30.95
2022-09-12T11:26:48.748Z,30.54
2022-09-12T11:33:24.260Z,30.61
2022-09-12T11:39:39.985Z,29.82
2022-09-12T11:45:45.293Z,30.01
2022-09-12T11:52:02.108Z,28.34
2022-09-12T11:58:05.075Z,27.58
2022-09-12T12:04:12.939Z,27.10
2022-09-12T12:10:56.304Z,26.32
2022-09-12T12:16:58.296Z,26.55
2022-09-12T12:23:01.027Z,26.70
2022-09-12T12:29:03.053Z,27.58
2022-09-12T12:35:40.742Z,26.54
2022-09-12T12:41:46.257Z,27.76
2022-09-12T12:47:53.812Z,26.96
2022-09-12T12:53:56.268Z,26.33
2022-09-12T13:00:29.775Z,25.29
2022-09-12T13:06:43.233Z,25.16
2022-09-12T13:12:47.833Z,25.86
2022-09-12T13:18:51.407Z,27.64
2022-09-12T13:24:53.443Z,29.70
2022-09-12T13:31:23.317Z,28.03
2022-09-12T13:37:51.345Z,29.14
2022-09-12T13:43:53.772Z,28.70
2022-09-12T13:49:57.281Z,28.81
2022-09-12T13:56:00.147Z,30.71
2022-09-12T14:02:02.164Z,33.99
2022-09-12T14:08:08.615Z,34.19
2022-09-12T14:14:37.704Z,33.07
2022-09-12T14:20:39.968Z,30.83
2022-09-12T14:26:44.742Z,32.82
2022-09-12T14:33:12.140Z,35.13
2022-09-12T14:39:22.996Z,36.30
2022-09-12T14:45:32.118Z,35.31
2022-09-12T14:51:51.153Z,36.67
2022-09-12T14:58:26.448Z,36.31
2022-09-12T15:04:42.592Z,36.65
2022-09-12T15:10:44.842Z,37.49
2022-09-12T15:16:46.770Z,37.96
2022-09-12T15:22:48.687Z,38.55
2022-09-12T15:28:51.457Z,37.92
2022-09-12T15:34:54.770Z,38.14
2022-09-12T15:40:56.712Z,38.22
2022-09-12T15:47:00.660Z,38.37
2022-09-12T15:53:03.042Z,35.07
2022-09-12T15:59:05.428Z,32.87
2022-09-12T16:05:20.647Z,33.01
2022-09-12T16:11:25.905Z,32.83
2022-09-12T16:17:27.789Z,33.55
2022-09-12T16:23:29.687Z,33.79
2022-09-12T16:29:31.686Z,31.58
2022-09-12T16:35:33.658Z,29.66
2022-09-12T16:41:35.587Z,27.97
2022-09-12T16:47:38.000Z,26.36
2022-09-12T16:53:39.959Z,24.93
2022-09-12T16:59:41.877Z,23.96
2022-09-12T17:05:43.760Z,23.12
2022-09-12T17:11:47.766Z,22.37
2022-09-12T17:17:52.090Z,21.71
2022-09-12T17:23:54.282Z,21.55
2022-09-12T17:29:56.203Z,20.98
2022-09-12T17:36:03.524Z,20.56
2022-09-12T17:42:06.562Z,19.99
2022-09-12T17:48:11.285Z,19.52
2022-09-12T17:54:17.532Z,19.00
2022-09-12T18:00:39.467Z,18.69
2022-09-12T18:06:48.993Z,18.51
2022-09-12T18:12:50.938Z,18.19
2022-09-12T18:18:52.962Z,18.13
2022-09-12T18:24:54.870Z,18.12
2022-09-12T18:30:56.794Z,18.00
2022-09-12T18:36:59.103Z,17.85
2022-09-12T18:43:01.081Z,17.84
2022-09-12T18:49:04.575Z,17.84
2022-09-12T18:55:06.707Z,17.79
2022-09-12T19:01:24.728Z,17.72
2022-09-12T19:07:26.732Z,17.68
2022-09-12T19:13:28.769Z,17.80
2022-09-12T19:19:30.853Z,17.68
2022-09-12T19:25:32.903Z,17.73
2022-09-12T19:31:35.293Z,17.58
2022-09-12T19:37:37.235Z,17.66
2022-09-12T19:43:39.373Z,17.45
2022-09-12T19:49:41.283Z,17.58
2022-09-12T19:55:44.095Z,17.19
2022-09-12T20:01:46.043Z,17.31
2022-09-12T20:07:48.220Z,17.42
2022-09-12T20:13:50.542Z,17.49
2022-09-12T20:19:52.456Z,17.35
2022-09-12T20:25:54.381Z,17.35
2022-09-12T20:31:56.257Z,17.13
2022-09-12T20:37:58.158Z,17.09
2022-09-12T20:44:00.348Z,16.80
2022-09-12T20:50:02.226Z,16.72
2022-09-12T20:56:06.789Z,16.54
2022-09-12T21:02:14.249Z,16.37
2022-09-12T21:08:16.379Z,16.32
2022-09-12T21:14:18.262Z,16.32
2022-09-12T21:20:20.249Z,16.41
2022-09-12T21:26:22.120Z,16.07
2022-09-12T21:32:24.033Z,16.02
2022-09-12T21:38:25.954Z,16.06
2022-09-12T21:44:27.841Z,16.15
2022-09-12T21:50:29.829Z,16.17
2022-09-12T21:56:31.744Z,16.14
2022-09-12T22:02:33.933Z,16.04
2022-09-12T22:08:39.870Z,15.88
2022-09-12T22:14:42.271Z,16.07
2022-09-12T22:20:44.291Z,15.84
2022-09-12T22:26:46.671Z,15.93
2022-09-12T22:32:50.030Z,15.77
2022-09-12T22:38:51.932Z,15.53
2022-09-12T22:44:53.868Z,15.48
2022-09-12T22:50:55.843Z,15.41
2022-09-12T22:56:57.725Z,15.45
2022-09-12T23:02:59.689Z,15.23
2022-09-12T23:09:01.768Z,15.16
2022-09-12T23:15:04.236Z,15.41
2022-09-12T23:21:09.627Z,15.63
2022-09-12T23:27:11.517Z,15.68
2022-09-12T23:33:13.431Z,15.54
2022-09-12T23:39:15.343Z,15.45
2022-09-12T23:45:17.331Z,15.44
2022-09-12T23:51:21.647Z,15.42
2022-09-12T23:57:23.589Z,15.18
